Aviation Digital Data Service (ADDS)

Output produced by METARs form (1716 UTC 24 June 2019)
found at http://www.aviationweather.gov/metar/data/
 
METAR text: RJKI 241700Z AUTO 09004KT 050V110 9999 BKN005 OVC013 25/24 Q1011
Conditions at: RJKI (KIKAI ISLAND , JP) observed 1700 UTC 24 June 2019
Temperature: 25.0°C (77°F)
Dewpoint: 24.0°C (75°F) [RH = 94%]
Pressure (altimeter): 29.85 inches Hg (1011.0 mb)
Winds: from the E (90 degrees) at 5 MPH (4 knots; 2.1 m/s)
Visibility: 6 or more miles (10+ km)
Ceiling: 500 feet AGL
Clouds: broken clouds at 500 feet AGL
overcast cloud deck at 1300 feet AGL
Weather: no significant weather observed at this time

METAR text: RJKI 241600Z AUTO 08006KT 9999 SCT005 OVC011 24/24 Q1011
Conditions at: RJKI (KIKAI ISLAND , JP) observed 1600 UTC 24 June 2019
Temperature: 24.0°C (75°F)
Dewpoint: 24.0°C (75°F) [RH = 100%]
Pressure (altimeter): 29.85 inches Hg (1011.0 mb)
Winds: from the E (80 degrees) at 7 MPH (6 knots; 3.1 m/s)
Visibility: 6 or more miles (10+ km)
Ceiling: 1100 feet AGL
Clouds: scattered clouds at 500 feet AGL
overcast cloud deck at 1100 feet AGL
Weather: no significant weather observed at this time

METAR text: RJKI 241500Z AUTO 07008KT 9000 OVC006 24/23 Q1011
Conditions at: RJKI (KIKAI ISLAND , JP) observed 1500 UTC 24 June 2019
Temperature: 24.0°C (75°F)
Dewpoint: 23.0°C (73°F) [RH = 94%]
Pressure (altimeter): 29.85 inches Hg (1011.0 mb)
Winds: from the ENE (70 degrees) at 9 MPH (8 knots; 4.1 m/s)
Visibility: 6 miles ( 9 km)
Ceiling: 600 feet AGL
Clouds: overcast cloud deck at 600 feet AGL
Weather: no significant weather observed at this time

METAR text: RJKI 241400Z AUTO 07008KT 9999 OVC006 24/23 Q1011
Conditions at: RJKI (KIKAI ISLAND , JP) observed 1400 UTC 24 June 2019
Temperature: 24.0°C (75°F)
Dewpoint: 23.0°C (73°F) [RH = 94%]
Pressure (altimeter): 29.85 inches Hg (1011.0 mb)
Winds: from the ENE (70 degrees) at 9 MPH (8 knots; 4.1 m/s)
Visibility: 6 or more miles (10+ km)
Ceiling: 600 feet AGL
Clouds: overcast cloud deck at 600 feet AGL
Weather: no significant weather observed at this time

METAR text: RJKI 241300Z AUTO 09008KT 9999 SCT010 BKN013 BKN023 24/23 Q1012
Conditions at: RJKI (KIKAI ISLAND , JP) observed 1300 UTC 24 June 2019
Temperature: 24.0°C (75°F)
Dewpoint: 23.0°C (73°F) [RH = 94%]
Pressure (altimeter): 29.88 inches Hg (1012.0 mb)
Winds: from the E (90 degrees) at 9 MPH (8 knots; 4.1 m/s)
Visibility: 6 or more miles (10+ km)
Ceiling: 1300 feet AGL
Clouds: scattered clouds at 1000 feet AGL
broken clouds at 1300 feet AGL
broken clouds at 2300 feet AGL
Weather: no significant weather observed at this time

METAR text: RJKI 241200Z AUTO 10006KT 070V150 9999 FEW007 OVC025 23/22 Q1012
Conditions at: RJKI (KIKAI ISLAND , JP) observed 1200 UTC 24 June 2019
Temperature: 23.0°C (73°F)
Dewpoint: 22.0°C (72°F) [RH = 94%]
Pressure (altimeter): 29.88 inches Hg (1012.0 mb)
Winds: from the E (100 degrees) at 7 MPH (6 knots; 3.1 m/s)
Visibility: 6 or more miles (10+ km)
Ceiling: 2500 feet AGL
Clouds: few clouds at 700 feet AGL
overcast cloud deck at 2500 feet AGL
Weather: no significant weather observed at this time

METAR text: RJKI 241100Z AUTO 11005KT 070V140 9999 FEW008 SCT022 OVC031 23/22 Q1011
Conditions at: RJKI (KIKAI ISLAND , JP) observed 1100 UTC 24 June 2019
Temperature: 23.0°C (73°F)
Dewpoint: 22.0°C (72°F) [RH = 94%]
Pressure (altimeter): 29.85 inches Hg (1011.0 mb)
Winds: from the ESE (110 degrees) at 6 MPH (5 knots; 2.6 m/s)
Visibility: 6 or more miles (10+ km)
Ceiling: 3100 feet AGL
Clouds: few clouds at 800 feet AGL
scattered clouds at 2200 feet AGL
overcast cloud deck at 3100 feet AGL
Weather: no significant weather observed at this time

METAR text: RJKI 241000Z AUTO 11005KT 070V150 9999 OVC033 24/21 Q1011
Conditions at: RJKI (KIKAI ISLAND , JP) observed 1000 UTC 24 June 2019
Temperature: 24.0°C (75°F)
Dewpoint: 21.0°C (70°F) [RH = 83%]
Pressure (altimeter): 29.85 inches Hg (1011.0 mb)
Winds: from the ESE (110 degrees) at 6 MPH (5 knots; 2.6 m/s)
Visibility: 6 or more miles (10+ km)
Ceiling: 3300 feet AGL
Clouds: overcast cloud deck at 3300 feet AGL
Weather: no significant weather observed at this time

METAR text: RJKI 240900Z AUTO 14006KT 110V170 9999 FEW009 SCT022 BKN026 23/22 Q1010
Conditions at: RJKI (KIKAI ISLAND , JP) observed 0900 UTC 24 June 2019
Temperature: 23.0°C (73°F)
Dewpoint: 22.0°C (72°F) [RH = 94%]
Pressure (altimeter): 29.82 inches Hg (1010.0 mb)
Winds: from the SE (140 degrees) at 7 MPH (6 knots; 3.1 m/s)
Visibility: 6 or more miles (10+ km)
Ceiling: 2600 feet AGL
Clouds: few clouds at 900 feet AGL
scattered clouds at 2200 feet AGL
broken clouds at 2600 feet AGL
Weather: no significant weather observed at this time

METAR text: RJKI 240838Z AUTO 15005KT 100V190 9999 FEW009 SCT011 BKN015 24/23 Q1010 RMK A2984
Conditions at: RJKI (KIKAI ISLAND , JP) observed 0838 UTC 24 June 2019
Temperature: 24.0°C (75°F)
Dewpoint: 23.0°C (73°F) [RH = 94%]
Pressure (altimeter): 29.82 inches Hg (1010.0 mb)
Winds: from the SSE (150 degrees) at 6 MPH (5 knots; 2.6 m/s)
Visibility: 6 or more miles (10+ km)
Ceiling: 1500 feet AGL
Clouds: few clouds at 900 feet AGL
scattered clouds at 1100 feet AGL
broken clouds at 1500 feet AGL
Weather: no significant weather observed at this time

METAR text: RJKI 240828Z AUTO 15004KT 110V200 3100 -RA BR FEW009 SCT011 BKN016 24/23 Q1010 RMK A2984
Conditions at: RJKI (KIKAI ISLAND , JP) observed 0828 UTC 24 June 2019
Temperature: 24.0°C (75°F)
Dewpoint: 23.0°C (73°F) [RH = 94%]
Pressure (altimeter): 29.82 inches Hg (1010.0 mb)
Winds: from the SSE (150 degrees) at 5 MPH (4 knots; 2.1 m/s)
Visibility: 1.93 miles (3.11 km)
Ceiling: 1600 feet AGL
Clouds: few clouds at 900 feet AGL
scattered clouds at 1100 feet AGL
broken clouds at 1600 feet AGL
Weather: -RA BR  (light rain, mist)

METAR text: RJKI 240800Z AUTO 15005KT 100V180 9999 FEW023 SCT031 BKN035 24/22 Q1010
Conditions at: RJKI (KIKAI ISLAND , JP) observed 0800 UTC 24 June 2019
Temperature: 24.0°C (75°F)
Dewpoint: 22.0°C (72°F) [RH = 89%]
Pressure (altimeter): 29.82 inches Hg (1010.0 mb)
Winds: from the SSE (150 degrees) at 6 MPH (5 knots; 2.6 m/s)
Visibility: 6 or more miles (10+ km)
Ceiling: 3500 feet AGL
Clouds: few clouds at 2300 feet AGL
scattered clouds at 3100 feet AGL
broken clouds at 3500 feet AGL
Weather: no significant weather observed at this time

METAR text: RJKI 240700Z AUTO 14006KT 100V180 9999 FEW010 SCT015 OVC050 25/23 Q1009
Conditions at: RJKI (KIKAI ISLAND , JP) observed 0700 UTC 24 June 2019
Temperature: 25.0°C (77°F)
Dewpoint: 23.0°C (73°F) [RH = 89%]
Pressure (altimeter): 29.79 inches Hg (1009.0 mb)
Winds: from the SE (140 degrees) at 7 MPH (6 knots; 3.1 m/s)
Visibility: 6 or more miles (10+ km)
Ceiling: 5000 feet AGL
Clouds: few clouds at 1000 feet AGL
scattered clouds at 1500 feet AGL
overcast cloud deck at 5000 feet AGL
Weather: no significant weather observed at this time

METAR text: RJKI 240600Z AUTO 11006KT 080V150 9999 NSC 26/22 Q1009
Conditions at: RJKI (KIKAI ISLAND , JP) observed 0600 UTC 24 June 2019
Temperature: 26.0°C (79°F)
Dewpoint: 22.0°C (72°F) [RH = 79%]
Pressure (altimeter): 29.79 inches Hg (1009.0 mb)
Winds: from the ESE (110 degrees) at 7 MPH (6 knots; 3.1 m/s)
Visibility: 6 or more miles (10+ km)
Ceiling: at least 12,000 feet AGL
Clouds: sky clear below 12,000 feet AGL
Weather: no significant weather observed at this time

METAR text: RJKI 240500Z AUTO 11004KT 060V160 9999 FEW024 BKN060 BKN110 26/22 Q1010
Conditions at: RJKI (KIKAI ISLAND , JP) observed 0500 UTC 24 June 2019
Temperature: 26.0°C (79°F)
Dewpoint: 22.0°C (72°F) [RH = 79%]
Pressure (altimeter): 29.82 inches Hg (1010.0 mb)
Winds: from the ESE (110 degrees) at 5 MPH (4 knots; 2.1 m/s)
Visibility: 6 or more miles (10+ km)
Ceiling: 6000 feet AGL
Clouds: few clouds at 2400 feet AGL
broken clouds at 6000 feet AGL
broken clouds at 11000 feet AGL
Weather: no significant weather observed at this time

METAR text: RJKI 240400Z AUTO 24003KT 200V290 9999 FEW021 BKN025 BKN028 27/23 Q1010
Conditions at: RJKI (KIKAI ISLAND , JP) observed 0400 UTC 24 June 2019
Temperature: 27.0°C (81°F)
Dewpoint: 23.0°C (73°F) [RH = 79%]
Pressure (altimeter): 29.82 inches Hg (1010.0 mb)
Winds: from the WSW (240 degrees) at 3 MPH (3 knots; 1.5 m/s)
Visibility: 6 or more miles (10+ km)
Ceiling: 2500 feet AGL
Clouds: few clouds at 2100 feet AGL
broken clouds at 2500 feet AGL
broken clouds at 2800 feet AGL
Weather: no significant weather observed at this time

METAR text: RJKI 240300Z AUTO 11005KT 360V160 9999 BKN021 26/22 Q1010
Conditions at: RJKI (KIKAI ISLAND , JP) observed 0300 UTC 24 June 2019
Temperature: 26.0°C (79°F)
Dewpoint: 22.0°C (72°F) [RH = 79%]
Pressure (altimeter): 29.82 inches Hg (1010.0 mb)
Winds: from the ESE (110 degrees) at 6 MPH (5 knots; 2.6 m/s)
Visibility: 6 or more miles (10+ km)
Ceiling: 2100 feet AGL
Clouds: broken clouds at 2100 feet AGL
Weather: no significant weather observed at this time

METAR text: RJKI 240200Z AUTO 35003KT 300V030 9999 NSC 26/22 Q1010
Conditions at: RJKI (KIKAI ISLAND , JP) observed 0200 UTC 24 June 2019
Temperature: 26.0°C (79°F)
Dewpoint: 22.0°C (72°F) [RH = 79%]
Pressure (altimeter): 29.82 inches Hg (1010.0 mb)
Winds: from the N (350 degrees) at 3 MPH (3 knots; 1.5 m/s)
Visibility: 6 or more miles (10+ km)
Ceiling: at least 12,000 feet AGL
Clouds: sky clear below 12,000 feet AGL
Weather: no significant weather observed at this time

METAR text: RJKI 240100Z AUTO 27004KT 220V310 9999 FEW019 26/22 Q1010
Conditions at: RJKI (KIKAI ISLAND , JP) observed 0100 UTC 24 June 2019
Temperature: 26.0°C (79°F)
Dewpoint: 22.0°C (72°F) [RH = 79%]
Pressure (altimeter): 29.82 inches Hg (1010.0 mb)
Winds: from the W (270 degrees) at 5 MPH (4 knots; 2.1 m/s)
Visibility: 6 or more miles (10+ km)
Ceiling: at least 12,000 feet AGL
Clouds: few clouds at 1900 feet AGL
Weather: no significant weather observed at this time

METAR text: RJKI 240000Z AUTO 29003KT 9999 NCD 25/21 Q1010
Conditions at: RJKI (KIKAI ISLAND , JP) observed 0000 UTC 24 June 2019
Temperature: 25.0°C (77°F)
Dewpoint: 21.0°C (70°F) [RH = 79%]
Pressure (altimeter): 29.82 inches Hg (1010.0 mb)
Winds: from the WNW (290 degrees) at 3 MPH (3 knots; 1.5 m/s)
Visibility: 6 or more miles (10+ km)
Ceiling: at least 12,000 feet AGL
Clouds: sky clear below 12,000 feet AGL
Weather: no significant weather observed at this time

METAR text: RJKI 232300Z AUTO VRB02KT 9999 NSC 24/21 Q1009
Conditions at: RJKI (KIKAI ISLAND , JP) observed 2300 UTC 23 June 2019
Temperature: 24.0°C (75°F)
Dewpoint: 21.0°C (70°F) [RH = 83%]
Pressure (altimeter): 29.79 inches Hg (1009.0 mb)
Winds: variable direction winds at 2 MPH (2 knots; 1.0 m/s)
Visibility: 6 or more miles (10+ km)
Ceiling: at least 12,000 feet AGL
Clouds: sky clear below 12,000 feet AGL
Weather: no significant weather observed at this time

METAR text: RJKI 232200Z AUTO 00000KT 8000 NSC 22/22 Q1009
Conditions at: RJKI (KIKAI ISLAND , JP) observed 2200 UTC 23 June 2019
Temperature: 22.0°C (72°F)
Dewpoint: 22.0°C (72°F) [RH = 100%]
Pressure (altimeter): 29.79 inches Hg (1009.0 mb)
Winds: calm
Visibility: 5 miles ( 8 km)
Ceiling: at least 12,000 feet AGL
Clouds: sky clear below 12,000 feet AGL
Weather: no significant weather observed at this time

METAR text: RJKI 232100Z AUTO 14002KT 6000 NSC 20/20 Q1009
Conditions at: RJKI (KIKAI ISLAND , JP) observed 2100 UTC 23 June 2019
Temperature: 20.0°C (68°F)
Dewpoint: 20.0°C (68°F) [RH = 100%]
Pressure (altimeter): 29.79 inches Hg (1009.0 mb)
Winds: from the SE (140 degrees) at 2 MPH (2 knots; 1.0 m/s)
Visibility: 4 miles ( 6 km)
Ceiling: at least 12,000 feet AGL
Clouds: sky clear below 12,000 feet AGL
Weather: no significant weather observed at this time

METAR text: RJKI 232000Z AUTO 19002KT 5000 BR NSC 20/20 Q1008
Conditions at: RJKI (KIKAI ISLAND , JP) observed 2000 UTC 23 June 2019
Temperature: 20.0°C (68°F)
Dewpoint: 20.0°C (68°F) [RH = 100%]
Pressure (altimeter): 29.76 inches Hg (1008.0 mb)
Winds: from the S (190 degrees) at 2 MPH (2 knots; 1.0 m/s)
Visibility: 3 miles ( 5 km)
Ceiling: at least 12,000 feet AGL
Clouds: sky clear below 12,000 feet AGL
Weather: BR  (mist)

METAR text: RJKI 231900Z AUTO VRB02KT 6000 NSC 20/20 Q1008
Conditions at: RJKI (KIKAI ISLAND , JP) observed 1900 UTC 23 June 2019
Temperature: 20.0°C (68°F)
Dewpoint: 20.0°C (68°F) [RH = 100%]
Pressure (altimeter): 29.76 inches Hg (1008.0 mb)
Winds: variable direction winds at 2 MPH (2 knots; 1.0 m/s)
Visibility: 4 miles ( 6 km)
Ceiling: at least 12,000 feet AGL
Clouds: sky clear below 12,000 feet AGL
Weather: no significant weather observed at this time

METAR text: RJKI 231800Z AUTO VRB02KT 5000 BR FEW014 20/20 Q1008
Conditions at: RJKI (KIKAI ISLAND , JP) observed 1800 UTC 23 June 2019
Temperature: 20.0°C (68°F)
Dewpoint: 20.0°C (68°F) [RH = 100%]
Pressure (altimeter): 29.76 inches Hg (1008.0 mb)
Winds: variable direction winds at 2 MPH (2 knots; 1.0 m/s)
Visibility: 3 miles ( 5 km)
Ceiling: at least 12,000 feet AGL
Clouds: few clouds at 1400 feet AGL
Weather: BR  (mist)

METAR text: RJKI 231700Z AUTO VRB02KT 7000 NSC 20/20 Q1007
Conditions at: RJKI (KIKAI ISLAND , JP) observed 1700 UTC 23 June 2019
Temperature: 20.0°C (68°F)
Dewpoint: 20.0°C (68°F) [RH = 100%]
Pressure (altimeter): 29.73 inches Hg (1007.0 mb)
Winds: variable direction winds at 2 MPH (2 knots; 1.0 m/s)
Visibility: 4 miles ( 7 km)
Ceiling: at least 12,000 feet AGL
Clouds: sky clear below 12,000 feet AGL
Weather: no significant weather observed at this time

METAR text: RJKI 231600Z AUTO VRB02KT 7000 NSC 20/20 Q1007
Conditions at: RJKI (KIKAI ISLAND , JP) observed 1600 UTC 23 June 2019
Temperature: 20.0°C (68°F)
Dewpoint: 20.0°C (68°F) [RH = 100%]
Pressure (altimeter): 29.73 inches Hg (1007.0 mb)
Winds: variable direction winds at 2 MPH (2 knots; 1.0 m/s)
Visibility: 4 miles ( 7 km)
Ceiling: at least 12,000 feet AGL
Clouds: sky clear below 12,000 feet AGL
Weather: no significant weather observed at this time

METAR text: RJKI 231500Z AUTO VRB02KT 7000 NCD 21/20 Q1008
Conditions at: RJKI (KIKAI ISLAND , JP) observed 1500 UTC 23 June 2019
Temperature: 21.0°C (70°F)
Dewpoint: 20.0°C (68°F) [RH = 94%]
Pressure (altimeter): 29.76 inches Hg (1008.0 mb)
Winds: variable direction winds at 2 MPH (2 knots; 1.0 m/s)
Visibility: 4 miles ( 7 km)
Ceiling: at least 12,000 feet AGL
Clouds: sky clear below 12,000 feet AGL
Weather: no significant weather observed at this time

METAR text: RJKI 231400Z AUTO 29003KT 9999 NSC 22/20 Q1008
Conditions at: RJKI (KIKAI ISLAND , JP) observed 1400 UTC 23 June 2019
Temperature: 22.0°C (72°F)
Dewpoint: 20.0°C (68°F) [RH = 88%]
Pressure (altimeter): 29.76 inches Hg (1008.0 mb)
Winds: from the WNW (290 degrees) at 3 MPH (3 knots; 1.5 m/s)
Visibility: 6 or more miles (10+ km)
Ceiling: at least 12,000 feet AGL
Clouds: sky clear below 12,000 feet AGL
Weather: no significant weather observed at this time

METAR text: RJKI 231300Z AUTO 31005KT 9999 NSC 23/21 Q1007
Conditions at: RJKI (KIKAI ISLAND , JP) observed 1300 UTC 23 June 2019
Temperature: 23.0°C (73°F)
Dewpoint: 21.0°C (70°F) [RH = 89%]
Pressure (altimeter): 29.73 inches Hg (1007.0 mb)
Winds: from the NW (310 degrees) at 6 MPH (5 knots; 2.6 m/s)
Visibility: 6 or more miles (10+ km)
Ceiling: at least 12,000 feet AGL
Clouds: sky clear below 12,000 feet AGL
Weather: no significant weather observed at this time

METAR text: RJKI 231200Z AUTO 32006KT 9999 FEW015 SCT060 BKN080 23/21 Q1007
Conditions at: RJKI (KIKAI ISLAND , JP) observed 1200 UTC 23 June 2019
Temperature: 23.0°C (73°F)
Dewpoint: 21.0°C (70°F) [RH = 89%]
Pressure (altimeter): 29.73 inches Hg (1007.0 mb)
Winds: from the NW (320 degrees) at 7 MPH (6 knots; 3.1 m/s)
Visibility: 6 or more miles (10+ km)
Ceiling: 8000 feet AGL
Clouds: few clouds at 1500 feet AGL
scattered clouds at 6000 feet AGL
broken clouds at 8000 feet AGL
Weather: no significant weather observed at this time

METAR text: RJKI 231100Z AUTO 36008KT 9999 SCT015 BKN070 OVC090 22/20 Q1006
Conditions at: RJKI (KIKAI ISLAND , JP) observed 1100 UTC 23 June 2019
Temperature: 22.0°C (72°F)
Dewpoint: 20.0°C (68°F) [RH = 88%]
Pressure (altimeter): 29.70 inches Hg (1006.0 mb)
Winds: from the N (360 degrees) at 9 MPH (8 knots; 4.1 m/s)
Visibility: 6 or more miles (10+ km)
Ceiling: 7000 feet AGL
Clouds: scattered clouds at 1500 feet AGL
broken clouds at 7000 feet AGL
overcast cloud deck at 9000 feet AGL
Weather: no significant weather observed at this time

METAR text: RJKI 231000Z AUTO 35009KT 9999 FEW014 BKN050 OVC080 22/20 Q1006
Conditions at: RJKI (KIKAI ISLAND , JP) observed 1000 UTC 23 June 2019
Temperature: 22.0°C (72°F)
Dewpoint: 20.0°C (68°F) [RH = 88%]
Pressure (altimeter): 29.70 inches Hg (1006.0 mb)
Winds: from the N (350 degrees) at 10 MPH (9 knots; 4.6 m/s)
Visibility: 6 or more miles (10+ km)
Ceiling: 5000 feet AGL
Clouds: few clouds at 1400 feet AGL
broken clouds at 5000 feet AGL
overcast cloud deck at 8000 feet AGL
Weather: no significant weather observed at this time

METAR text: RJKI 230900Z AUTO 01010KT 9999 SCT013 BKN060 OVC080 22/20 Q1004
Conditions at: RJKI (KIKAI ISLAND , JP) observed 0900 UTC 23 June 2019
Temperature: 22.0°C (72°F)
Dewpoint: 20.0°C (68°F) [RH = 88%]
Pressure (altimeter): 29.65 inches Hg (1004.0 mb)
Winds: from the N (10 degrees) at 12 MPH (10 knots; 5.1 m/s)
Visibility: 6 or more miles (10+ km)
Ceiling: 6000 feet AGL
Clouds: scattered clouds at 1300 feet AGL
broken clouds at 6000 feet AGL
overcast cloud deck at 8000 feet AGL
Weather: no significant weather observed at this time

METAR text: RJKI 230800Z AUTO 01013KT 9999 -RA FEW011 SCT038 BKN050 21/20 Q1004
Conditions at: RJKI (KIKAI ISLAND , JP) observed 0800 UTC 23 June 2019
Temperature: 21.0°C (70°F)
Dewpoint: 20.0°C (68°F) [RH = 94%]
Pressure (altimeter): 29.65 inches Hg (1004.0 mb)
Winds: from the N (10 degrees) at 15 MPH (13 knots; 6.7 m/s)
Visibility: 6 or more miles (10+ km)
Ceiling: 5000 feet AGL
Clouds: few clouds at 1100 feet AGL
scattered clouds at 3800 feet AGL
broken clouds at 5000 feet AGL
Weather: -RA  (light rain)

METAR text: RJKI 230700Z AUTO 02017KT 9999 -RA SCT011 OVC029 21/20 Q1003
Conditions at: RJKI (KIKAI ISLAND , JP) observed 0700 UTC 23 June 2019
Temperature: 21.0°C (70°F)
Dewpoint: 20.0°C (68°F) [RH = 94%]
Pressure (altimeter): 29.62 inches Hg (1003.0 mb)
Winds: from the NNE (20 degrees) at 20 MPH (17 knots; 8.7 m/s)
Visibility: 6 or more miles (10+ km)
Ceiling: 2900 feet AGL
Clouds: scattered clouds at 1100 feet AGL
overcast cloud deck at 2900 feet AGL
Weather: -RA  (light rain)

METAR text: RJKI 230643Z AUTO 02018KT 9999 FEW009 SCT010 OVC026 21/20 Q1003 RMK A2962
Conditions at: RJKI (KIKAI ISLAND , JP) observed 0643 UTC 23 June 2019
Temperature: 21.0°C (70°F)
Dewpoint: 20.0°C (68°F) [RH = 94%]
Pressure (altimeter): 29.62 inches Hg (1003.0 mb)
Winds: from the NNE (20 degrees) at 21 MPH (18 knots; 9.3 m/s)
Visibility: 6 or more miles (10+ km)
Ceiling: 2600 feet AGL
Clouds: few clouds at 900 feet AGL
scattered clouds at 1000 feet AGL
overcast cloud deck at 2600 feet AGL
Weather: no significant weather observed at this time

METAR text: RJKI 230622Z AUTO 01020KT 9999 BKN009 OVC022 21/21 Q1002 RMK A2961
Conditions at: RJKI (KIKAI ISLAND , JP) observed 0622 UTC 23 June 2019
Temperature: 21.0°C (70°F)
Dewpoint: 21.0°C (70°F) [RH = 100%]
Pressure (altimeter): 29.59 inches Hg (1002.0 mb)
Winds: from the N (10 degrees) at 23 MPH (20 knots; 10.3 m/s)
Visibility: 6 or more miles (10+ km)
Ceiling: 900 feet AGL
Clouds: broken clouds at 900 feet AGL
overcast cloud deck at 2200 feet AGL
Weather: no significant weather observed at this time

METAR text: RJKI 230600Z AUTO 01019KT 9999 FEW005 SCT008 BKN013 21/21 Q1002
Conditions at: RJKI (KIKAI ISLAND , JP) observed 0600 UTC 23 June 2019
Temperature: 21.0°C (70°F)
Dewpoint: 21.0°C (70°F) [RH = 100%]
Pressure (altimeter): 29.59 inches Hg (1002.0 mb)
Winds: from the N (10 degrees) at 22 MPH (19 knots; 9.8 m/s)
Visibility: 6 or more miles (10+ km)
Ceiling: 1300 feet AGL
Clouds: few clouds at 500 feet AGL
scattered clouds at 800 feet AGL
broken clouds at 1300 feet AGL
Weather: no significant weather observed at this time

METAR text: RJKI 230540Z AUTO 02019KT 8000 -RA SCT007 SCT009 OVC011 //////TCU 22/21 Q1003 RMK A2962 TCU 40KM SE MOV E
Conditions at: RJKI (KIKAI ISLAND , JP) observed 0540 UTC 23 June 2019
Temperature: 22.0°C (72°F)
Dewpoint: 21.0°C (70°F) [RH = 94%]
Pressure (altimeter): 29.62 inches Hg (1003.0 mb)
Winds: from the NNE (20 degrees) at 22 MPH (19 knots; 9.8 m/s)
Visibility: 5 miles ( 8 km)
Ceiling: 1100 feet AGL
Clouds: scattered clouds at 700 feet AGL
scattered clouds at 900 feet AGL
overcast cloud deck at 1100 feet AGL
Weather: -RA  (light rain)

METAR text: RJKI 230532Z AUTO 02021KT 6000 FEW007 BKN009 BKN010 //////TCU 22/21 Q1003 RMK A2962 TCU 35KM SE MOV UNKNOWN
Conditions at: RJKI (KIKAI ISLAND , JP) observed 0532 UTC 23 June 2019
Temperature: 22.0°C (72°F)
Dewpoint: 21.0°C (70°F) [RH = 94%]
Pressure (altimeter): 29.62 inches Hg (1003.0 mb)
Winds: from the NNE (20 degrees) at 24 MPH (21 knots; 10.8 m/s)
Visibility: 4 miles ( 6 km)
Ceiling: 900 feet AGL
Clouds: few clouds at 700 feet AGL
broken clouds at 900 feet AGL
broken clouds at 1000 feet AGL
Weather: no significant weather observed at this time

METAR text: RJKI 230523Z AUTO 03021KT 3400 BR FEW005 BKN007 BKN009 22/21 Q1003 RMK A2962
Conditions at: RJKI (KIKAI ISLAND , JP) observed 0523 UTC 23 June 2019
Temperature: 22.0°C (72°F)
Dewpoint: 21.0°C (70°F) [RH = 94%]
Pressure (altimeter): 29.62 inches Hg (1003.0 mb)
Winds: from the NNE (30 degrees) at 24 MPH (21 knots; 10.8 m/s)
Visibility: 2.11 miles (3.40 km)
Ceiling: 700 feet AGL
Clouds: few clouds at 500 feet AGL
broken clouds at 700 feet AGL
broken clouds at 900 feet AGL
Weather: BR  (mist)

METAR text: RJKI 230518Z AUTO 03020KT 3100 RA BR BKN005 BKN007 OVC050 22/22 Q1003 RMK A2962 RI005
Conditions at: RJKI (KIKAI ISLAND , JP) observed 0518 UTC 23 June 2019
Temperature: 22.0°C (72°F)
Dewpoint: 22.0°C (72°F) [RH = 100%]
Pressure (altimeter): 29.62 inches Hg (1003.0 mb)
Winds: from the NNE (30 degrees) at 23 MPH (20 knots; 10.3 m/s)
Visibility: 1.93 miles (3.11 km)
Ceiling: 500 feet AGL
Clouds: broken clouds at 500 feet AGL
broken clouds at 700 feet AGL
overcast cloud deck at 5000 feet AGL
Weather: RA BR  (moderate rain, mist)